Time;durP1;ratioP1;P1;durP2;ratioP2;P2;SDS_P1;SDS_P2;PMS_P1;PMS_P2;Temp;Humidity;BMP_temperature;BMP_pressure;BME280_temperature;BME280_humidity;BME280_pressure;Samples;Min_cycle;Max_cycle;Signal;HPM_P1;HPM_P2
2021/11/22 00:00:21;;;;;;;2.00;1.63;;;22.00;56.00;;;;;;5038214;28;20419;-77
2021/11/22 00:02:50;;;;;;;2.77;1.80;;;22.00;56.00;;;;;;5027715;28;20433;-77
2021/11/22 00:05:16;;;;;;;6.03;1.67;;;22.00;56.00;;;;;;5031374;28;20855;-78
2021/11/22 00:07:41;;;;;;;2.70;1.97;;;22.00;56.00;;;;;;5033080;28;20427;-77
2021/11/22 00:10:07;;;;;;;2.30;2.10;;;22.00;56.00;;;;;;5026994;28;20517;-77
2021/11/22 00:12:34;;;;;;;2.00;1.60;;;22.00;56.00;;;;;;5033267;28;20188;-77
2021/11/22 00:15:03;;;;;;;2.13;1.90;;;22.00;56.00;;;;;;5027191;28;20429;-78
2021/11/22 00:17:30;;;;;;;2.10;1.67;;;22.00;56.00;;;;;;5032181;28;20435;-77
2021/11/22 00:19:57;;;;;;;1.60;1.40;;;22.00;56.00;;;;;;5050643;28;20414;-77
2021/11/22 00:22:26;;;;;;;2.40;1.90;;;22.00;56.00;;;;;;5047091;28;20423;-78
2021/11/22 00:24:53;;;;;;;2.43;1.50;;;22.00;56.00;;;;;;5031625;28;20422;-78
2021/11/22 00:27:19;;;;;;;1.93;1.73;;;22.00;56.00;;;;;;5030732;28;20434;-76
2021/11/22 00:29:45;;;;;;;2.03;1.50;;;22.00;56.00;;;;;;5031950;28;20529;-77
2021/11/22 00:32:10;;;;;;;1.70;1.60;;;22.00;56.60;;;;;;5032028;28;20180;-78
2021/11/22 00:34:46;;;;;;;1.90;1.53;;;21.90;56.00;;;;;;5030739;28;20431;-78
2021/11/22 00:37:24;;;;;;;2.80;2.10;;;22.00;56.10;;;;;;5048233;28;20171;-78
2021/11/22 00:39:50;;;;;;;2.77;1.90;;;22.00;56.10;;;;;;5044865;28;20414;-78
2021/11/22 00:42:16;;;;;;;3.07;1.60;;;21.90;56.00;;;;;;5029840;28;20427;-78
2021/11/22 00:44:42;;;;;;;2.50;2.13;;;21.90;56.00;;;;;;5026506;28;20461;-78
2021/11/22 00:47:09;;;;;;;1.80;1.40;;;21.90;56.00;;;;;;5049217;28;20442;-79
2021/11/22 00:49:37;;;;;;;2.43;1.77;;;21.90;56.00;;;;;;5027702;28;20466;-78
2021/11/22 00:52:04;;;;;;;1.93;1.73;;;21.90;56.00;;;;;;5033941;28;20469;-78
2021/11/22 00:54:30;;;;;;;1.70;1.40;;;22.00;56.10;;;;;;5043968;28;20479;-78
2021/11/22 00:56:56;;;;;;;2.10;1.57;;;22.00;56.10;;;;;;5024238;28;20407;-79
2021/11/22 00:59:22;;;;;;;2.10;1.73;;;22.00;56.10;;;;;;5039191;28;20433;-78
2021/11/22 01:01:51;;;;;;;2.03;1.60;;;22.00;56.10;;;;;;5040774;28;20910;-78
2021/11/22 01:04:17;;;;;;;2.77;1.77;;;21.90;56.00;;;;;;5022565;28;20192;-78
2021/11/22 01:06:43;;;;;;;1.80;1.53;;;21.90;56.00;;;;;;5038493;28;20411;-79
2021/11/22 01:09:12;;;;;;;2.37;1.70;;;21.90;56.00;;;;;;5040764;28;20454;-78
2021/11/22 01:11:38;;;;;;;1.90;1.60;;;21.90;56.00;;;;;;5020516;28;20427;-78
2021/11/22 01:14:04;;;;;;;1.97;1.77;;;21.90;56.00;;;;;;5022943;28;20445;-77
2021/11/22 01:16:32;;;;;;;2.20;1.43;;;21.90;56.00;;;;;;5038381;28;20407;-77
2021/11/22 01:18:59;;;;;;;1.83;1.73;;;21.90;56.00;;;;;;5023825;28;20447;-77
2021/11/22 01:21:26;;;;;;;2.07;1.60;;;21.90;56.00;;;;;;5044216;28;20426;-77
2021/11/22 01:23:52;;;;;;;2.00;1.60;;;21.90;56.00;;;;;;5040710;28;20415;-79
2021/11/22 01:26:18;;;;;;;2.40;1.67;;;21.90;56.00;;;;;;5043462;28;20476;-78
2021/11/22 01:28:45;;;;;;;2.13;1.73;;;21.90;56.00;;;;;;5038449;28;20212;-79
2021/11/22 01:31:11;;;;;;;2.00;1.50;;;21.90;56.10;;;;;;5040445;28;20419;-79
2021/11/22 01:33:37;;;;;;;2.10;1.90;;;21.90;56.00;;;;;;5024483;28;20414;-79
2021/11/22 01:36:03;;;;;;;2.30;2.00;;;21.90;56.00;;;;;;5032218;28;20282;-78
2021/11/22 01:38:29;;;;;;;1.70;1.50;;;21.90;56.10;;;;;;5036805;28;20184;-78
2021/11/22 01:40:55;;;;;;;1.87;1.60;;;21.90;56.00;;;;;;5021224;28;20462;-78
2021/11/22 01:46:46;;;;;;;1.67;1.37;;;21.90;56.00;;;;;;5037347;28;20231;-78
2021/11/22 01:49:12;;;;;;;3.00;1.60;;;21.90;56.10;;;;;;5019405;28;20465;-78
2021/11/22 01:51:38;;;;;;;2.73;1.60;;;21.90;56.10;;;;;;5022642;28;20802;-78
2021/11/22 01:54:03;;;;;;;2.83;1.80;;;21.90;56.10;;;;;;5021841;28;20902;-78
2021/11/22 01:56:32;;;;;;;3.03;1.50;;;21.90;56.10;;;;;;5023761;28;20179;-79
2021/11/22 01:58:58;;;;;;;1.60;1.40;;;21.90;56.10;;;;;;5018138;28;20191;-78
2021/11/22 02:01:24;;;;;;;2.90;1.90;;;21.90;56.10;;;;;;5025286;28;20423;-78
2021/11/22 02:03:50;;;;;;;1.70;1.57;;;21.90;56.10;;;;;;5043599;28;20179;-78
2021/11/22 02:06:16;;;;;;;2.23;1.60;;;21.90;56.10;;;;;;5042866;28;20451;-78
2021/11/22 02:08:41;;;;;;;2.60;2.03;;;21.90;56.10;;;;;;5037709;28;20208;-78
2021/11/22 02:11:09;;;;;;;1.93;1.50;;;21.90;56.10;;;;;;5024047;28;20438;-78
2021/11/22 02:13:35;;;;;;;1.90;1.50;;;21.90;56.10;;;;;;5043993;28;20642;-78
2021/11/22 02:16:01;;;;;;;2.27;1.40;;;21.90;56.10;;;;;;5026482;28;20457;-78
2021/11/22 02:18:27;;;;;;;2.13;1.57;;;21.90;56.10;;;;;;5030576;28;20526;-78
2021/11/22 02:20:53;;;;;;;2.17;1.63;;;21.90;56.10;;;;;;5027003;28;20422;-79
2021/11/22 02:23:20;;;;;;;2.00;1.60;;;21.80;56.00;;;;;;5030456;28;20427;-78
2021/11/22 02:25:45;;;;;;;2.23;1.77;;;21.90;56.10;;;;;;5027361;28;20415;-78
2021/11/22 02:28:13;;;;;;;3.00;1.90;;;21.90;56.10;;;;;;5042755;28;20461;-78
2021/11/22 02:30:45;;;;;;;1.50;1.30;;;21.90;56.10;;;;;;5044445;28;20176;-78
2021/11/22 02:33:19;;;;;;;1.63;1.33;;;21.90;56.10;;;;;;5024943;28;20456;-79
2021/11/22 02:35:47;;;;;;;2.00;1.73;;;21.90;56.10;;;;;;5023060;28;20924;-78
2021/11/22 02:38:21;;;;;;;1.80;1.60;;;21.90;56.10;;;;;;5024099;28;20422;-78
2021/11/22 02:40:48;;;;;;;2.17;1.70;;;21.90;56.10;;;;;;5027503;28;20470;-78
2021/11/22 02:43:14;;;;;;;1.80;1.40;;;21.80;56.00;;;;;;5043494;28;20426;-78
2021/11/22 02:45:40;;;;;;;2.00;1.60;;;21.80;56.00;;;;;;5045362;28;20418;-78
2021/11/22 02:48:06;;;;;;;1.93;1.70;;;21.80;56.00;;;;;;5043175;28;20425;-79
2021/11/22 02:50:33;;;;;;;1.87;1.50;;;21.80;56.00;;;;;;5045388;28;20180;-79
2021/11/22 02:52:59;;;;;;;1.70;1.30;;;21.80;56.00;;;;;;5030053;28;20472;-78
2021/11/22 02:55:25;;;;;;;2.90;1.90;;;21.80;56.00;;;;;;5026730;28;20414;-78
2021/11/22 02:57:51;;;;;;;2.37;1.47;;;21.80;56.00;;;;;;5029198;28;20191;-78
2021/11/22 03:00:26;;;;;;;2.00;1.50;;;21.80;56.00;;;;;;5049117;28;20190;-78
2021/11/22 03:02:53;;;;;;;2.03;1.40;;;21.80;56.00;;;;;;5048562;28;20406;-78
2021/11/22 03:05:19;;;;;;;2.37;1.50;;;21.80;56.00;;;;;;5049195;28;20422;-78
2021/11/22 03:07:46;;;;;;;2.33;1.60;;;21.80;56.10;;;;;;5032727;28;20417;-79
2021/11/22 03:10:14;;;;;;;1.83;1.60;;;21.80;56.00;;;;;;5048391;28;20469;-78
2021/11/22 03:12:41;;;;;;;2.60;1.20;;;21.80;56.00;;;;;;5032745;28;20407;-79
2021/11/22 03:15:11;;;;;;;2.40;2.10;;;21.80;56.00;;;;;;5048141;28;20512;-78
2021/11/22 03:17:37;;;;;;;2.23;1.33;;;21.80;56.00;;;;;;5032052;28;20422;-79
2021/11/22 03:20:05;;;;;;;2.23;1.73;;;21.80;56.00;;;;;;5047777;28;20422;-78
2021/11/22 03:22:32;;;;;;;1.70;1.40;;;21.80;56.00;;;;;;5050460;28;20413;-79
2021/11/22 03:24:58;;;;;;;2.00;1.60;;;21.80;56.00;;;;;;5057734;28;20420;-79
2021/11/22 03:27:24;;;;;;;1.67;1.27;;;21.80;56.00;;;;;;5027615;28;20422;-79
2021/11/22 03:29:50;;;;;;;2.37;1.67;;;21.80;56.00;;;;;;5038069;28;20454;-79
2021/11/22 03:32:16;;;;;;;1.63;1.30;;;21.80;56.00;;;;;;5023596;28;20426;-79
2021/11/22 03:34:42;;;;;;;1.10;1.00;;;21.80;56.00;;;;;;5039818;28;20168;-78
2021/11/22 03:37:08;;;;;;;1.40;1.10;;;21.80;56.00;;;;;;5038165;28;20181;-78
2021/11/22 03:39:35;;;;;;;2.43;1.73;;;21.80;56.00;;;;;;5045142;28;20459;-77
2021/11/22 03:42:05;;;;;;;1.70;1.40;;;21.80;56.00;;;;;;5029678;28;20926;-78
2021/11/22 03:44:33;;;;;;;2.20;1.30;;;21.80;56.00;;;;;;5013854;28;20469;-79
2021/11/22 03:46:59;;;;;;;1.60;1.40;;;21.80;56.00;;;;;;5012151;28;20416;-79
2021/11/22 03:49:26;;;;;;;2.47;1.57;;;21.80;56.00;;;;;;5012190;28;20462;-78
2021/11/22 03:51:52;;;;;;;1.87;1.60;;;21.80;56.00;;;;;;5030463;28;20423;-79
2021/11/22 03:54:19;;;;;;;1.90;1.20;;;21.80;56.00;;;;;;5014902;28;20422;-79
2021/11/22 03:56:45;;;;;;;1.33;1.20;;;21.80;56.00;;;;;;5036911;28;20482;-79
2021/11/22 03:59:12;;;;;;;1.80;1.47;;;21.80;56.00;;;;;;5016410;28;20461;-78
2021/11/22 04:01:39;;;;;;;1.53;1.40;;;21.80;56.00;;;;;;5027024;28;20426;-79
2021/11/22 04:04:05;;;;;;;1.40;1.20;;;21.80;56.00;;;;;;5029567;28;20474;-79
2021/11/22 04:06:31;;;;;;;1.57;1.40;;;21.80;56.00;;;;;;5035737;28;20426;-79
2021/11/22 04:08:57;;;;;;;1.50;1.40;;;21.80;56.00;;;;;;5012863;28;20530;-79
2021/11/22 04:11:24;;;;;;;1.60;1.10;;;21.80;56.10;;;;;;5033438;28;20759;-78
2021/11/22 04:13:51;;;;;;;1.20;1.00;;;21.80;56.00;;;;;;5028848;28;20418;-79
2021/11/22 04:16:17;;;;;;;1.73;1.50;;;21.80;56.00;;;;;;5037456;28;20498;-78
2021/11/22 04:18:43;;;;;;;1.33;1.13;;;21.80;56.00;;;;;;5027048;28;20414;-79
2021/11/22 04:21:11;;;;;;;1.33;1.23;;;21.80;56.00;;;;;;5038334;28;20184;-79
2021/11/22 04:23:37;;;;;;;1.53;1.40;;;21.80;56.00;;;;;;5031479;28;20423;-79
2021/11/22 04:26:04;;;;;;;1.93;1.70;;;21.80;56.00;;;;;;5014591;28;20423;-77
2021/11/22 04:28:29;;;;;;;1.60;1.17;;;21.80;56.00;;;;;;5034563;28;20460;-78
2021/11/22 04:30:55;;;;;;;2.10;1.80;;;21.80;56.00;;;;;;5050185;28;20859;-78
2021/11/22 04:33:21;;;;;;;2.33;1.90;;;21.80;56.00;;;;;;5017937;28;20184;-79
2021/11/22 04:35:47;;;;;;;1.67;1.53;;;21.80;56.00;;;;;;5032768;28;20438;-80
2021/11/22 04:38:13;;;;;;;1.50;1.30;;;21.80;56.00;;;;;;5015730;28;20192;-79
2021/11/22 04:40:38;;;;;;;1.97;1.27;;;21.80;56.00;;;;;;5016516;28;21233;-79
2021/11/22 04:43:04;;;;;;;1.67;1.40;;;21.80;56.00;;;;;;5032623;28;20211;-79
2021/11/22 04:45:30;;;;;;;1.50;1.30;;;21.80;56.00;;;;;;5034699;28;20255;-79
2021/11/22 04:48:02;;;;;;;2.60;1.33;;;21.80;56.00;;;;;;5032874;28;20216;-78
2021/11/22 04:50:28;;;;;;;2.90;1.60;;;21.80;56.10;;;;;;5017255;28;20429;-79
2021/11/22 04:52:55;;;;;;;2.70;1.53;;;21.80;56.00;;;;;;5032178;28;20430;-78
2021/11/22 04:55:22;;;;;;;1.50;1.37;;;21.80;56.00;;;;;;5035630;28;20411;-78
2021/11/22 04:57:49;;;;;;;1.57;1.47;;;21.70;55.90;;;;;;5034024;28;20442;-78
2021/11/22 05:00:17;;;;;;;1.70;1.60;;;21.70;56.00;;;;;;5034740;28;20518;-78
2021/11/22 05:02:45;;;;;;;1.53;1.43;;;21.70;56.00;;;;;;5028082;28;20422;-77
2021/11/22 05:05:13;;;;;;;2.60;1.60;;;21.70;56.00;;;;;;5021431;28;20425;-78
2021/11/22 05:07:39;;;;;;;1.40;1.20;;;21.70;56.00;;;;;;5031500;28;20434;-78
2021/11/22 05:10:07;;;;;;;1.67;1.30;;;21.70;56.00;;;;;;5017606;28;20454;-77
2021/11/22 05:12:32;;;;;;;2.40;1.27;;;21.70;56.10;;;;;;5037850;28;20414;-77
2021/11/22 05:14:58;;;;;;;1.60;1.30;;;21.70;56.00;;;;;;5036350;28;20446;-77
2021/11/22 05:17:24;;;;;;;1.80;1.40;;;21.70;56.10;;;;;;5037531;28;20255;-78
2021/11/22 05:19:50;;;;;;;1.67;1.10;;;21.70;56.00;;;;;;5036248;28;20188;-78
2021/11/22 05:22:21;;;;;;;2.60;1.30;;;21.70;56.00;;;;;;5037055;28;20241;-78
2021/11/22 05:24:50;;;;;;;1.93;1.10;;;21.70;56.00;;;;;;5035959;28;20179;-78
2021/11/22 05:27:22;;;;;;;2.53;1.47;;;21.70;56.00;;;;;;5034030;28;20455;-78
2021/11/22 05:29:49;;;;;;;1.43;1.20;;;21.70;56.00;;;;;;5033131;28;20446;-78
2021/11/22 05:32:17;;;;;;;1.27;1.17;;;21.70;56.00;;;;;;5033919;28;20427;-78
2021/11/22 05:34:47;;;;;;;2.00;1.47;;;21.70;56.60;;;;;;5019108;28;20445;-78
2021/11/22 05:37:13;;;;;;;2.17;1.77;;;21.70;56.00;;;;;;5041143;28;20436;-78
2021/11/22 05:39:41;;;;;;;2.03;1.67;;;21.70;56.00;;;;;;5043107;28;20901;-78
2021/11/22 05:42:10;;;;;;;1.50;1.20;;;21.70;56.10;;;;;;5035768;28;20431;-78
2021/11/22 05:44:35;;;;;;;1.93;1.50;;;21.70;56.00;;;;;;5017503;28;20419;-78
2021/11/22 05:47:04;;;;;;;1.43;1.17;;;21.70;56.00;;;;;;5036056;28;20418;-78
2021/11/22 05:49:32;;;;;;;2.07;1.40;;;21.70;56.00;;;;;;5035743;28;20199;-77
2021/11/22 05:51:58;;;;;;;1.40;1.30;;;21.70;56.00;;;;;;5036791;28;20418;-79
2021/11/22 05:54:25;;;;;;;1.43;1.23;;;21.70;56.00;;;;;;5017904;28;20411;-79
2021/11/22 05:56:51;;;;;;;1.50;1.40;;;21.80;56.00;;;;;;5020729;28;20414;-78
2021/11/22 05:59:17;;;;;;;2.27;1.93;;;21.80;56.00;;;;;;5038510;28;20446;-79
2021/11/22 06:01:43;;;;;;;1.97;1.67;;;21.80;56.00;;;;;;5021194;28;20419;-79
2021/11/22 06:04:09;;;;;;;1.20;1.00;;;21.80;56.00;;;;;;5028688;28;20414;-79
2021/11/22 06:06:35;;;;;;;1.87;1.30;;;21.80;56.00;;;;;;5042464;28;20191;-79
2021/11/22 06:09:01;;;;;;;1.70;1.20;;;21.80;55.90;;;;;;5018487;28;20203;-78
2021/11/22 06:11:27;;;;;;;1.70;1.50;;;21.80;55.90;;;;;;5038285;28;20235;-79
2021/11/22 06:13:58;;;;;;;1.63;1.20;;;21.80;55.90;;;;;;5039224;28;20892;-78
2021/11/22 06:16:23;;;;;;;1.60;1.30;;;21.80;55.90;;;;;;5027967;28;20171;-79
2021/11/22 06:18:49;;;;;;;2.50;1.20;;;21.80;55.90;;;;;;5024150;28;20410;-79
2021/11/22 06:21:16;;;;;;;1.57;1.13;;;21.80;55.90;;;;;;5038938;28;20195;-78
2021/11/22 06:23:42;;;;;;;1.30;1.20;;;21.90;55.90;;;;;;5021856;28;20188;-79
2021/11/22 06:26:07;;;;;;;1.43;1.00;;;21.80;55.90;;;;;;5016719;28;20491;-78
2021/11/22 06:28:35;;;;;;;1.40;1.23;;;21.80;55.80;;;;;;5040431;28;20211;-79
2021/11/22 06:31:00;;;;;;;1.03;0.93;;;21.90;55.90;;;;;;5020352;28;20188;-79
2021/11/22 06:33:26;;;;;;;1.50;1.20;;;21.90;55.90;;;;;;5026427;28;20914;-79
2021/11/22 06:35:52;;;;;;;2.10;1.17;;;21.90;55.90;;;;;;5040340;28;20202;-79
2021/11/22 06:38:18;;;;;;;1.40;1.10;;;21.80;55.80;;;;;;5021851;28;20189;-79
2021/11/22 06:40:45;;;;;;;1.50;1.10;;;21.90;55.90;;;;;;5027089;28;20674;-78
2021/11/22 06:43:11;;;;;;;1.50;1.13;;;21.90;55.90;;;;;;5031644;28;20445;-79
2021/11/22 06:45:37;;;;;;;1.13;1.03;;;21.90;55.90;;;;;;5023641;28;20449;-78
2021/11/22 06:48:04;;;;;;;2.03;1.40;;;21.90;55.90;;;;;;5042143;28;20430;-79
2021/11/22 06:50:30;;;;;;;3.07;1.63;;;21.90;55.90;;;;;;5040681;28;20406;-79
2021/11/22 06:52:56;;;;;;;1.43;1.33;;;21.90;55.80;;;;;;5044243;28;20437;-79
2021/11/22 06:55:22;;;;;;;1.30;1.10;;;21.90;55.80;;;;;;5044284;28;20410;-79
2021/11/22 06:57:48;;;;;;;1.80;1.30;;;21.80;55.70;;;;;;5042478;28;20551;-78
2021/11/22 07:00:16;;;;;;;2.60;1.50;;;21.80;55.70;;;;;;5041495;28;20203;-78
2021/11/22 07:02:42;;;;;;;1.37;1.07;;;21.80;55.70;;;;;;5041512;28;20415;-78
2021/11/22 07:05:08;;;;;;;1.33;1.23;;;21.90;55.80;;;;;;5028200;28;20460;-78
2021/11/22 07:07:34;;;;;;;1.20;1.07;;;21.80;55.80;;;;;;5022570;28;20529;-78
2021/11/22 07:10:01;;;;;;;1.60;1.30;;;21.90;55.80;;;;;;5027052;28;20534;-78
2021/11/22 07:12:26;;;;;;;2.00;1.40;;;21.80;55.70;;;;;;5042527;28;20421;-78
2021/11/22 07:14:53;;;;;;;1.97;1.50;;;21.90;55.80;;;;;;5041273;28;20443;-77
2021/11/22 07:17:19;;;;;;;2.00;1.40;;;21.90;55.80;;;;;;5025538;28;20433;-79
2021/11/22 07:19:45;;;;;;;1.67;1.43;;;21.80;55.70;;;;;;5024635;28;20423;-78
2021/11/22 07:22:11;;;;;;;2.30;1.27;;;21.90;55.80;;;;;;5042176;28;20188;-78
2021/11/22 07:24:40;;;;;;;1.63;1.23;;;21.90;55.80;;;;;;5021419;28;20177;-78
2021/11/22 07:27:07;;;;;;;2.40;1.43;;;21.90;55.80;;;;;;5012741;28;20426;-78
2021/11/22 07:29:33;;;;;;;1.43;1.10;;;21.90;55.80;;;;;;5042451;28;20473;-78
2021/11/22 07:31:59;;;;;;;1.67;1.40;;;21.90;55.80;;;;;;5040598;28;20423;-78
2021/11/22 07:34:25;;;;;;;2.10;1.43;;;21.90;55.80;;;;;;5030340;28;20188;-77
2021/11/22 07:36:51;;;;;;;1.30;1.10;;;21.90;55.80;;;;;;5020767;28;20713;-77
2021/11/22 07:39:17;;;;;;;1.67;1.20;;;21.90;55.80;;;;;;5021735;28;20445;-78
2021/11/22 07:41:44;;;;;;;1.53;1.23;;;21.90;55.80;;;;;;5024734;28;20447;-78
2021/11/22 07:44:10;;;;;;;1.77;1.20;;;21.90;55.80;;;;;;5034008;28;20184;-77
2021/11/22 07:46:36;;;;;;;1.73;1.40;;;21.90;55.80;;;;;;5019330;28;20433;-77
2021/11/22 07:49:04;;;;;;;1.50;1.20;;;21.90;55.90;;;;;;5038993;28;20248;-79
2021/11/22 07:51:32;;;;;;;1.80;1.20;;;21.90;55.80;;;;;;5039192;28;20233;-79
2021/11/22 07:53:58;;;;;;;1.60;1.30;;;21.90;55.80;;;;;;5032470;28;20451;-79
2021/11/22 07:56:23;;;;;;;1.77;1.20;;;21.90;55.80;;;;;;5028296;28;20435;-79
2021/11/22 07:58:49;;;;;;;1.50;1.20;;;21.90;55.80;;;;;;5030247;28;20195;-79
2021/11/22 08:01:15;;;;;;;2.40;1.30;;;21.90;55.80;;;;;;5032566;28;20196;-78
2021/11/22 08:03:41;;;;;;;1.40;1.30;;;21.90;55.80;;;;;;5023410;28;20195;-78
2021/11/22 08:06:08;;;;;;;1.50;1.33;;;21.90;55.70;;;;;;5037477;28;20192;-79
2021/11/22 08:08:37;;;;;;;1.73;1.60;;;22.00;55.80;;;;;;5017705;28;20208;-79
2021/11/22 08:13:32;;;;;;;1.60;1.20;;;22.00;55.80;;;;;;5031665;28;20487;-78
2021/11/22 08:16:02;;;;;;;1.50;1.20;;;22.00;55.80;;;;;;5031817;28;20411;-78
2021/11/22 08:18:28;;;;;;;1.50;1.10;;;22.00;55.80;;;;;;5023902;28;20427;-78
2021/11/22 08:20:55;;;;;;;2.80;1.30;;;22.00;55.80;;;;;;5036246;28;20431;-78
2021/11/22 08:23:21;;;;;;;1.73;1.27;;;22.00;55.80;;;;;;5039102;28;20199;-77
2021/11/22 08:25:47;;;;;;;1.57;1.40;;;22.10;55.80;;;;;;5039642;28;20415;-79
2021/11/22 08:28:12;;;;;;;1.60;1.10;;;22.00;55.80;;;;;;5016065;28;20550;-79
2021/11/22 08:30:38;;;;;;;1.70;1.20;;;22.10;55.90;;;;;;5030647;28;20176;-78
2021/11/22 08:33:04;;;;;;;1.57;1.37;;;22.10;56.40;;;;;;5030898;28;20188;-79
2021/11/22 08:35:31;;;;;;;1.20;1.03;;;22.10;55.80;;;;;;5014232;28;20431;-78
2021/11/22 08:37:59;;;;;;;1.50;1.33;;;22.10;55.80;;;;;;5013797;28;20191;-79
2021/11/22 08:40:25;;;;;;;2.40;1.30;;;22.10;55.80;;;;;;5021402;28;20502;-78
2021/11/22 08:42:53;;;;;;;1.47;1.27;;;22.10;55.80;;;;;;5032947;28;20439;-78
2021/11/22 08:45:19;;;;;;;2.93;1.53;;;22.10;55.80;;;;;;5016884;28;20423;-79
2021/11/22 08:47:45;;;;;;;2.07;1.30;;;22.10;55.80;;;;;;5026422;28;20442;-79
2021/11/22 08:50:13;;;;;;;2.80;1.43;;;22.10;55.80;;;;;;5036398;28;20455;-79
2021/11/22 08:52:39;;;;;;;1.53;1.10;;;22.20;55.90;;;;;;5015931;28;20439;-79
2021/11/22 08:55:06;;;;;;;1.57;1.40;;;22.10;55.80;;;;;;5033490;28;20412;-79
2021/11/22 08:57:33;;;;;;;2.63;1.50;;;22.20;55.90;;;;;;5019814;28;20408;-78
2021/11/22 08:59:59;;;;;;;1.30;1.10;;;22.20;55.90;;;;;;5025444;28;20451;-78
2021/11/22 09:02:25;;;;;;;1.80;1.20;;;22.20;55.90;;;;;;5031831;28;20498;-79
2021/11/22 09:04:50;;;;;;;2.10;1.50;;;22.20;55.90;;;;;;5018520;28;20184;-78
2021/11/22 09:07:17;;;;;;;1.70;1.30;;;22.20;55.90;;;;;;5029349;28;20219;-80
2021/11/22 09:09:44;;;;;;;1.40;1.30;;;22.20;55.90;;;;;;5028563;28;20211;-79
2021/11/22 09:12:10;;;;;;;1.87;1.30;;;22.20;55.90;;;;;;5017454;28;20415;-79
2021/11/22 09:14:36;;;;;;;2.53;1.47;;;22.20;55.90;;;;;;5038948;28;20475;-79
2021/11/22 09:17:02;;;;;;;1.40;1.10;;;22.20;55.90;;;;;;5029280;28;20449;-79
2021/11/22 09:19:28;;;;;;;1.70;1.13;;;22.20;55.90;;;;;;5034675;28;20180;-79
2021/11/22 09:21:54;;;;;;;1.40;1.30;;;22.30;55.90;;;;;;5040914;28;20461;-79
2021/11/22 09:24:19;;;;;;;1.83;1.23;;;22.30;55.90;;;;;;5036741;28;20180;-78
2021/11/22 09:26:45;;;;;;;1.20;1.03;;;22.30;55.90;;;;;;5037878;28;20176;-79
2021/11/22 09:29:11;;;;;;;1.93;1.30;;;22.20;55.90;;;;;;5037997;28;20275;-80
2021/11/22 09:31:37;;;;;;;1.97;1.00;;;22.30;55.90;;;;;;5039378;28;20434;-79
2021/11/22 09:34:05;;;;;;;1.50;1.40;;;22.30;55.90;;;;;;5039569;28;20178;-79
2021/11/22 09:36:31;;;;;;;2.30;1.50;;;22.30;55.90;;;;;;5038051;28;20243;-79
2021/11/22 09:38:56;;;;;;;1.27;0.93;;;22.30;56.00;;;;;;5038642;28;20429;-79
2021/11/22 09:41:29;;;;;;;2.27;1.20;;;22.30;56.00;;;;;;5039149;28;20629;-80
2021/11/22 09:43:56;;;;;;;1.60;1.27;;;22.30;55.90;;;;;;5028246;28;20202;-78
2021/11/22 09:46:24;;;;;;;2.93;1.60;;;22.30;55.90;;;;;;5039956;28;20495;-78
2021/11/22 09:48:50;;;;;;;2.77;1.53;;;22.30;55.90;;;;;;5041191;28;20446;-77
2021/11/22 09:51:16;;;;;;;1.93;1.17;;;22.30;55.90;;;;;;5029898;28;20425;-78
2021/11/22 09:53:42;;;;;;;2.63;1.33;;;22.30;56.00;;;;;;5033482;28;20423;-78
2021/11/22 09:56:11;;;;;;;1.97;1.53;;;22.30;56.00;;;;;;5036151;28;20242;-79
2021/11/22 09:58:37;;;;;;;2.07;1.60;;;22.30;55.90;;;;;;5027731;28;20180;-78
2021/11/22 10:01:14;;;;;;;1.47;1.20;;;22.30;55.90;;;;;;5012498;28;20546;-78
2021/11/22 10:03:40;;;;;;;1.47;1.10;;;22.30;55.90;;;;;;5013340;28;20222;-78
2021/11/22 10:06:06;;;;;;;1.60;1.27;;;22.30;55.90;;;;;;5010078;28;20426;-79
2021/11/22 10:08:41;;;;;;;2.00;1.30;;;22.30;56.00;;;;;;5013030;28;20523;-79
2021/11/22 10:11:08;;;;;;;2.03;1.50;;;22.30;56.00;;;;;;5032236;28;20422;-77
2021/11/22 10:13:43;;;;;;;3.73;1.23;;;22.30;56.00;;;;;;5035285;28;20463;-76
2021/11/22 10:16:12;;;;;;;1.47;1.23;;;22.30;56.00;;;;;;5037740;28;20446;-77
2021/11/22 10:18:59;;;;;;;1.83;1.30;;;22.30;56.00;;;;;;5022195;28;20415;-79
2021/11/22 10:21:34;;;;;;;2.20;1.33;;;22.30;56.00;;;;;;5042828;28;20432;-81
2021/11/22 10:24:06;;;;;;;1.20;1.00;;;22.30;56.00;;;;;;5048673;28;20428;-78
2021/11/22 10:26:44;;;;;;;1.53;1.20;;;22.30;56.00;;;;;;5032403;28;20450;-80
2021/11/22 10:29:22;;;;;;;1.57;1.20;;;22.30;56.10;;;;;;5031735;28;20441;-79
2021/11/22 10:31:52;;;;;;;1.37;1.27;;;22.30;56.10;;;;;;5042059;28;20433;-78
2021/11/22 10:34:18;;;;;;;2.00;1.50;;;22.30;56.10;;;;;;5041353;28;20454;-79
2021/11/22 10:36:56;;;;;;;1.90;1.23;;;22.30;56.10;;;;;;5021610;28;20415;-77
2021/11/22 10:39:21;;;;;;;1.80;1.40;;;22.30;56.10;;;;;;5022387;28;20461;-78
2021/11/22 10:41:47;;;;;;;1.40;1.23;;;22.30;56.10;;;;;;5045372;28;20469;-78
2021/11/22 10:44:15;;;;;;;1.50;1.40;;;22.30;56.10;;;;;;5050525;28;20171;-80
2021/11/22 10:46:48;;;;;;;1.60;1.00;;;22.30;56.10;;;;;;5047228;28;20179;-78
2021/11/22 10:49:30;;;;;;;1.63;1.20;;;22.30;56.00;;;;;;5048981;28;20521;-78
2021/11/22 10:52:13;;;;;;;3.10;1.57;;;22.30;56.00;;;;;;5045370;28;20408;-79
2021/11/22 10:55:03;;;;;;;1.27;1.00;;;22.40;56.10;;;;;;5052261;28;20438;-78
2021/11/22 10:57:41;;;;;;;1.97;1.30;;;22.40;56.10;;;;;;5048610;28;20438;-78
2021/11/22 11:00:23;;;;;;;1.40;1.20;;;22.30;56.10;;;;;;5055389;28;20406;-79
2021/11/22 11:02:52;;;;;;;1.53;1.33;;;22.30;56.10;;;;;;5035514;28;20438;-76
2021/11/22 11:05:36;;;;;;;1.97;1.47;;;22.30;56.10;;;;;;5035109;28;20418;-78
2021/11/22 11:08:06;;;;;;;1.57;1.10;;;22.40;56.10;;;;;;5037666;28;20441;-77
2021/11/22 11:10:33;;;;;;;1.57;1.00;;;22.30;56.10;;;;;;5048592;28;20503;-75
2021/11/22 11:12:59;;;;;;;1.40;1.17;;;22.40;56.10;;;;;;5042429;28;20423;-77
2021/11/22 11:15:26;;;;;;;2.13;1.53;;;22.40;56.10;;;;;;5053449;28;20406;-78
2021/11/22 11:17:53;;;;;;;1.53;1.17;;;22.40;56.10;;;;;;5029710;28;20505;-77
2021/11/22 11:20:21;;;;;;;1.20;1.00;;;22.40;56.10;;;;;;5047841;28;20418;-79
2021/11/22 11:22:51;;;;;;;3.40;1.20;;;22.40;56.10;;;;;;5051465;28;20411;-80
2021/11/22 11:25:24;;;;;;;1.53;1.17;;;22.40;56.10;;;;;;5051267;28;20402;-78
2021/11/22 11:27:51;;;;;;;2.40;1.23;;;22.40;56.10;;;;;;5050616;28;20431;-76
2021/11/22 11:30:20;;;;;;;1.77;1.20;;;22.40;56.10;;;;;;5049742;28;20477;-77
2021/11/22 11:32:50;;;;;;;2.17;1.20;;;22.40;56.10;;;;;;5020562;28;20450;-79
2021/11/22 11:35:18;;;;;;;1.10;0.83;;;22.40;56.10;;;;;;5034157;28;20422;-75
2021/11/22 11:38:18;;;;;;;1.93;1.23;;;22.40;56.10;;;;;;5026331;28;20439;-77
2021/11/22 11:40:53;;;;;;;2.17;1.10;;;22.40;56.60;;;;;;5037267;28;20450;-77
2021/11/22 11:43:43;;;;;;;1.20;1.00;;;22.40;56.10;;;;;;5054255;28;20481;-77
2021/11/22 11:46:29;;;;;;;2.50;1.33;;;22.40;56.10;;;;;;5053269;28;20446;-77
2021/11/22 11:49:00;;;;;;;1.50;1.20;;;22.40;56.20;;;;;;5028672;28;20450;-77
2021/11/22 11:51:38;;;;;;;1.10;1.00;;;22.40;56.20;;;;;;5048271;28;20423;-77
2021/11/22 11:54:06;;;;;;;2.30;1.33;;;22.40;56.20;;;;;;5026193;28;20445;-78
2021/11/22 11:56:41;;;;;;;1.73;1.20;;;22.40;56.20;;;;;;5045675;28;20971;-78
2021/11/22 11:59:24;;;;;;;1.20;0.93;;;22.40;56.20;;;;;;5046466;28;20435;-80
2021/11/22 12:02:07;;;;;;;1.30;0.97;;;22.40;56.10;;;;;;5027353;28;20431;-78
2021/11/22 12:05:01;;;;;;;1.87;1.27;;;22.40;56.20;;;;;;5036050;28;20449;-78
2021/11/22 12:07:34;;;;;;;1.30;1.10;;;22.40;56.10;;;;;;5034354;28;20517;-78
2021/11/22 12:10:04;;;;;;;1.30;1.00;;;22.40;56.20;;;;;;5031954;28;20466;-77
2021/11/22 12:13:00;;;;;;;1.37;1.13;;;22.40;56.20;;;;;;5034490;28;20426;-77
2021/11/22 12:15:44;;;;;;;1.40;1.20;;;22.40;56.20;;;;;;5024244;28;20462;-78
2021/11/22 12:18:26;;;;;;;1.20;1.10;;;22.40;56.20;;;;;;5028470;28;20434;-79
2021/11/22 12:21:22;;;;;;;1.63;1.07;;;22.40;56.20;;;;;;5045814;28;20418;-79
2021/11/22 12:23:53;;;;;;;1.37;0.97;;;22.40;56.20;;;;;;5021914;28;20447;-79
2021/11/22 12:26:37;;;;;;;1.00;0.80;;;22.40;56.20;;;;;;5022254;28;20442;-79
2021/11/22 12:29:08;;;;;;;1.20;0.90;;;22.40;56.40;;;;;;5026499;28;20455;-79
2021/11/22 12:31:43;;;;;;;2.07;1.37;;;22.40;56.20;;;;;;5049365;28;20411;-79
2021/11/22 12:34:12;;;;;;;1.73;1.10;;;22.40;56.20;;;;;;5029597;28;20447;-80
2021/11/22 12:36:41;;;;;;;1.37;1.00;;;22.40;56.20;;;;;;5031196;28;20418;-80
2021/11/22 12:39:17;;;;;;;1.73;1.10;;;22.40;56.10;;;;;;5049691;28;20446;-80
2021/11/22 12:41:45;;;;;;;2.00;1.17;;;22.40;56.10;;;;;;5024698;28;20446;-79
2021/11/22 12:44:22;;;;;;;1.40;1.00;;;22.40;56.20;;;;;;5031381;28;20438;-80
2021/11/22 12:46:57;;;;;;;2.77;1.10;;;22.40;56.10;;;;;;5026026;28;20912;-80
2021/11/22 12:49:35;;;;;;;2.60;1.63;;;22.40;56.10;;;;;;5048089;28;20457;-79
2021/11/22 12:52:25;;;;;;;3.60;2.23;;;22.40;56.10;;;;;;5049036;28;20446;-79
2021/11/22 12:54:54;;;;;;;11.60;5.33;;;22.40;56.10;;;;;;5049557;28;20433;-79
2021/11/22 12:57:28;;;;;;;9.20;6.10;;;22.40;56.20;;;;;;5029038;28;20474;-80
2021/11/22 13:00:26;;;;;;;20.23;8.40;;;22.40;56.10;;;;;;5026323;28;20415;-80